Time;durP1;ratioP1;P1;durP2;ratioP2;P2;SDS_P1;SDS_P2;PMS_P1;PMS_P2;Temp;Humidity;BMP_temperature;BMP_pressure;BME280_temperature;BME280_humidity;BME280_pressure;Samples;Min_cycle;Max_cycle;Signal;HPM_P1;HPM_P2
2023/08/19 00:01:00;;;;;;;15.38;11.48;;;20.10;99.90;;;;;;5113472;28;20039;-64
2023/08/19 00:03:26;;;;;;;14.15;11.43;;;20.20;99.90;;;;;;5113762;28;20054;-64
2023/08/19 00:05:51;;;;;;;16.48;12.55;;;20.00;99.90;;;;;;5112253;28;20521;-64
2023/08/19 00:08:19;;;;;;;15.05;11.15;;;20.10;99.90;;;;;;5113696;28;20044;-64
2023/08/19 00:10:44;;;;;;;14.52;10.80;;;20.10;99.90;;;;;;5113322;28;20048;-64
2023/08/19 00:13:10;;;;;;;12.60;10.98;;;20.10;99.90;;;;;;5113636;28;20390;-64
2023/08/19 00:15:36;;;;;;;14.10;10.57;;;20.40;99.90;;;;;;5113664;28;20107;-64
2023/08/19 00:18:02;;;;;;;13.68;10.45;;;20.10;99.90;;;;;;5113354;28;20044;-64
2023/08/19 00:20:28;;;;;;;14.55;10.38;;;20.10;99.90;;;;;;5113221;28;20403;-64
2023/08/19 00:22:57;;;;;;;11.77;9.32;;;20.10;99.90;;;;;;5112186;28;20518;-64
2023/08/19 00:25:24;;;;;;;13.25;9.85;;;20.10;99.90;;;;;;5113626;28;20155;-64
2023/08/19 00:27:50;;;;;;;14.32;10.80;;;20.00;99.90;;;;;;5113175;28;20039;-64
2023/08/19 00:30:16;;;;;;;14.35;10.40;;;20.00;99.90;;;;;;5115413;28;20043;-64
2023/08/19 00:32:42;;;;;;;12.27;10.13;;;20.10;99.90;;;;;;5116449;28;20536;-64
2023/08/19 00:35:08;;;;;;;15.00;11.43;;;20.10;99.90;;;;;;5117689;28;20036;-66
2023/08/19 00:37:35;;;;;;;13.05;10.63;;;20.00;99.90;;;;;;5117637;28;20038;-66
2023/08/19 00:40:04;;;;;;;15.00;11.10;;;20.10;99.90;;;;;;5117611;28;20039;-66
2023/08/19 00:42:29;;;;;;;14.77;11.25;;;20.00;99.90;;;;;;5117516;28;20047;-66
2023/08/19 00:44:55;;;;;;;13.60;10.77;;;20.40;99.90;;;;;;5117484;28;20035;-66
2023/08/19 00:47:21;;;;;;;12.63;9.95;;;20.00;99.90;;;;;;5117392;28;20126;-66
2023/08/19 00:49:48;;;;;;;14.85;11.25;;;19.90;99.90;;;;;;5117343;28;20040;-66
2023/08/19 00:52:14;;;;;;;17.33;11.18;;;20.10;99.90;;;;;;5116088;28;20139;-66
2023/08/19 00:54:40;;;;;;;14.65;10.77;;;19.80;99.90;;;;;;5117282;28;20042;-66
2023/08/19 00:57:05;;;;;;;15.15;10.73;;;20.00;99.90;;;;;;5117245;28;20028;-67
2023/08/19 00:59:31;;;;;;;15.57;11.90;;;20.00;99.90;;;;;;5117176;28;20493;-66
2023/08/19 01:01:57;;;;;;;15.18;10.82;;;20.00;99.90;;;;;;5117111;28;20043;-66
2023/08/19 01:04:23;;;;;;;13.77;10.27;;;19.90;99.90;;;;;;5117205;28;20036;-64
2023/08/19 01:07:11;;;;;;;16.00;11.27;;;20.00;99.90;;;;;;5116784;28;20130;-64
2023/08/19 01:10:01;;;;;;;14.50;11.75;;;19.90;99.90;;;;;;5098533;28;20047;-64
2023/08/19 01:12:42;;;;;;;15.93;10.73;;;19.90;99.90;;;;;;5116956;28;20047;-64
2023/08/19 01:15:27;;;;;;;14.15;10.95;;;19.80;99.90;;;;;;5116936;28;20800;-64
2023/08/19 01:17:53;;;;;;;14.40;10.27;;;19.80;99.90;;;;;;5116810;28;20083;-64
2023/08/19 01:20:21;;;;;;;15.10;11.10;;;19.80;99.90;;;;;;5116761;28;20084;-64
2023/08/19 01:23:05;;;;;;;14.13;11.05;;;19.80;99.90;;;;;;5116417;28;20132;-64
2023/08/19 01:25:32;;;;;;;13.95;10.50;;;19.80;99.90;;;;;;5116693;28;20507;-64
2023/08/19 01:28:02;;;;;;;13.27;10.98;;;19.70;99.90;;;;;;5116625;28;20039;-64
2023/08/19 01:30:30;;;;;;;;;;;19.70;99.90;;;;;;5116981;28;20036;-64
2023/08/19 01:32:56;;;;;;;14.70;10.10;;;19.70;99.90;;;;;;5116315;28;19923;-64
2023/08/19 01:35:22;;;;;;;13.45;10.30;;;19.60;99.90;;;;;;5116496;28;20035;-64
2023/08/19 01:37:57;;;;;;;13.52;10.38;;;19.60;99.90;;;;;;5116425;28;20368;-64
2023/08/19 01:40:24;;;;;;;13.25;10.30;;;19.70;99.90;;;;;;5116304;28;20046;-64
2023/08/19 01:42:51;;;;;;;15.02;12.07;;;19.60;99.90;;;;;;5115342;28;20054;-64
2023/08/19 01:45:17;;;;;;;16.95;11.85;;;19.60;99.90;;;;;;5116439;27;20043;-64
2023/08/19 01:47:43;;;;;;;15.98;10.90;;;19.60;99.90;;;;;;5116373;28;20039;-64
2023/08/19 01:50:09;;;;;;;14.07;11.45;;;19.30;99.90;;;;;;5116188;28;20047;-64
2023/08/19 01:52:36;;;;;;;14.90;11.75;;;19.60;99.90;;;;;;5114660;28;20062;-64
2023/08/19 01:55:02;;;;;;;16.40;12.27;;;19.60;99.90;;;;;;5114580;28;20043;-64
2023/08/19 01:57:27;;;;;;;17.30;12.63;;;19.60;99.90;;;;;;5114844;28;20040;-63
2023/08/19 01:59:54;;;;;;;14.85;12.02;;;19.60;99.90;;;;;;5115742;28;20039;-64
2023/08/19 02:02:21;;;;;;;13.40;9.85;;;19.60;99.90;;;;;;5116201;28;20380;-66
2023/08/19 02:04:46;;;;;;;14.32;11.10;;;19.50;99.90;;;;;;5115634;28;20047;-66
2023/08/19 02:07:12;;;;;;;15.68;12.18;;;19.80;99.90;;;;;;5115536;28;20048;-66
2023/08/19 02:09:39;;;;;;;14.35;11.68;;;19.60;99.90;;;;;;5115482;28;20071;-66
2023/08/19 02:12:05;;;;;;;14.93;10.88;;;19.70;99.90;;;;;;5115482;28;20042;-66
2023/08/19 02:14:31;;;;;;;13.10;10.43;;;19.60;99.90;;;;;;5115841;28;20035;-66
2023/08/19 02:16:56;;;;;;;14.00;10.80;;;19.60;99.90;;;;;;5116054;28;20039;-66
2023/08/19 02:19:22;;;;;;;17.75;11.38;;;19.50;99.90;;;;;;5115377;28;20031;-66
2023/08/19 02:21:48;;;;;;;14.18;11.07;;;19.60;99.90;;;;;;5115168;28;20043;-66
2023/08/19 02:24:13;;;;;;;14.95;11.05;;;19.70;99.90;;;;;;5114012;28;20119;-66
2023/08/19 02:26:39;;;;;;;14.05;9.73;;;19.80;99.90;;;;;;5115230;28;20078;-66
2023/08/19 02:29:04;;;;;;;15.50;11.38;;;19.60;99.90;;;;;;5115482;28;20043;-66
2023/08/19 02:31:30;;;;;;;16.67;11.18;;;19.60;99.90;;;;;;5096786;28;20055;-66
2023/08/19 02:33:56;;;;;;;13.10;10.60;;;19.60;99.90;;;;;;5115420;28;20114;-66
2023/08/19 02:36:22;;;;;;;15.65;11.95;;;19.60;99.90;;;;;;5115358;28;20038;-66
2023/08/19 02:38:47;;;;;;;13.02;10.75;;;19.70;99.90;;;;;;5115319;28;20046;-66
2023/08/19 02:41:13;;;;;;;15.73;11.32;;;19.50;99.90;;;;;;5114933;28;20487;-66
2023/08/19 02:43:39;;;;;;;14.88;11.38;;;19.70;99.90;;;;;;5113535;28;20063;-66
2023/08/19 02:46:04;;;;;;;17.02;12.10;;;19.80;99.90;;;;;;5115119;28;20040;-66
2023/08/19 02:48:31;;;;;;;13.55;11.10;;;19.70;99.90;;;;;;5113535;28;20515;-66
2023/08/19 02:50:56;;;;;;;15.55;11.52;;;19.90;99.90;;;;;;5114976;28;20043;-67
2023/08/19 02:53:22;;;;;;;14.05;11.07;;;20.10;99.90;;;;;;5114744;28;20101;-66
2023/08/19 02:55:54;;;;;;;17.45;11.70;;;19.80;99.90;;;;;;5115081;28;20498;-64
2023/08/19 02:58:20;;;;;;;13.50;11.38;;;19.70;99.90;;;;;;5114818;28;20032;-64
2023/08/19 03:00:47;;;;;;;15.35;11.88;;;20.10;99.90;;;;;;5114882;28;20444;-64
2023/08/19 03:03:13;;;;;;;15.18;11.20;;;19.80;99.90;;;;;;5114777;28;20399;-64
2023/08/19 03:05:39;;;;;;;13.75;10.93;;;19.70;99.90;;;;;;5114651;28;20035;-64
2023/08/19 03:08:06;;;;;;;13.70;10.73;;;20.10;99.90;;;;;;5114725;28;20107;-64
2023/08/19 03:10:33;;;;;;;14.93;11.90;;;19.70;99.90;;;;;;5114581;28;20448;-64
2023/08/19 03:12:59;;;;;;;12.65;10.25;;;19.80;99.90;;;;;;5114517;28;20494;-64
2023/08/19 03:15:25;;;;;;;13.32;11.00;;;20.00;99.90;;;;;;5114283;28;20032;-64
2023/08/19 03:17:50;;;;;;;16.17;10.93;;;19.60;99.90;;;;;;5114559;28;20035;-65
2023/08/19 03:20:16;;;;;;;13.63;9.77;;;19.90;99.90;;;;;;5114503;28;20039;-64
2023/08/19 03:22:42;;;;;;;13.80;10.63;;;19.70;99.90;;;;;;5114363;28;20050;-64
2023/08/19 03:25:09;;;;;;;11.52;9.02;;;19.90;99.90;;;;;;5114052;28;20039;-64
2023/08/19 03:27:35;;;;;;;15.80;10.98;;;19.60;99.90;;;;;;5114059;28;20092;-64
2023/08/19 03:30:01;;;;;;;13.48;9.82;;;19.90;99.90;;;;;;5114233;28;20039;-64
2023/08/19 03:32:26;;;;;;;12.60;9.30;;;19.90;99.90;;;;;;5113915;28;20078;-64
2023/08/19 03:34:52;;;;;;;13.68;10.25;;;19.80;99.90;;;;;;5114187;28;20472;-64
2023/08/19 03:37:17;;;;;;;13.10;9.73;;;19.70;99.90;;;;;;5113021;28;20118;-64
2023/08/19 03:39:43;;;;;;;14.93;10.55;;;19.70;99.90;;;;;;5114131;28;20521;-63
2023/08/19 03:42:08;;;;;;;15.30;9.85;;;19.90;99.90;;;;;;5114107;28;20043;-64
2023/08/19 03:44:34;;;;;;;12.75;10.25;;;20.00;99.90;;;;;;5114050;28;20039;-64
2023/08/19 03:46:59;;;;;;;13.18;10.02;;;19.60;99.90;;;;;;5113725;28;20043;-64
2023/08/19 03:49:25;;;;;;;13.43;10.13;;;20.10;99.90;;;;;;5113891;28;20040;-64
2023/08/19 03:51:51;;;;;;;12.85;10.05;;;20.10;99.90;;;;;;5113923;28;20035;-64
2023/08/19 03:54:16;;;;;;;11.90;8.82;;;19.90;99.90;;;;;;5113928;28;20475;-64
2023/08/19 03:56:42;;;;;;;13.25;10.68;;;19.60;99.90;;;;;;5113519;28;20036;-64
2023/08/19 03:59:07;;;;;;;15.13;10.45;;;19.80;99.90;;;;;;5095577;28;20036;-64
2023/08/19 04:01:33;;;;;;;12.63;9.90;;;20.20;99.90;;;;;;5113789;28;20043;-64
2023/08/19 04:03:59;;;;;;;11.63;9.05;;;19.80;99.90;;;;;;5111776;28;20040;-64
2023/08/19 04:06:24;;;;;;;12.77;10.25;;;20.00;99.90;;;;;;5113374;28;20130;-64
2023/08/19 04:08:50;;;;;;;14.55;9.13;;;20.30;99.90;;;;;;5113684;28;20048;-64
2023/08/19 04:11:16;;;;;;;12.93;9.70;;;;;;;;;;5113356;28;20079;-64
2023/08/19 04:13:42;;;;;;;14.02;10.27;;;;;;;;;;5113363;28;20035;-64
2023/08/19 04:16:08;;;;;;;12.65;9.50;;;;;;;;;;5112214;28;20035;-64
2023/08/19 04:18:34;;;;;;;11.95;9.50;;;;;;;;;;5113570;28;20130;-64
2023/08/19 04:21:04;;;;;;;11.82;9.50;;;;;;;;;;5113534;28;20036;-64
2023/08/19 04:23:30;;;;;;;11.67;9.37;;;;;;;;;;5113319;28;20051;-64
2023/08/19 04:25:56;;;;;;;10.38;8.68;;;;;;;;;;5113536;28;20629;-64
2023/08/19 04:28:22;;;;;;;13.73;10.07;;;;;;;;;;5113235;28;20040;-64
2023/08/19 04:30:49;;;;;;;13.52;9.13;;;;;;;;;;5113346;28;20035;-65
2023/08/19 04:33:15;;;;;;;11.80;9.55;;;;;;;;;;5113154;28;20032;-64
2023/08/19 04:35:41;;;;;;;10.88;8.55;;;;;;;;;;5113096;28;20046;-64
2023/08/19 04:38:06;;;;;;;12.23;8.85;;;20.10;99.90;;;;;;5113146;28;20400;-64
2023/08/19 04:40:32;;;;;;;12.38;8.90;;;19.90;99.90;;;;;;5111750;28;20104;-64
2023/08/19 04:42:57;;;;;;;10.57;8.25;;;19.70;99.90;;;;;;5113392;28;20042;-64
2023/08/19 04:45:24;;;;;;;11.38;9.10;;;20.20;99.90;;;;;;5113310;28;20043;-64
2023/08/19 04:47:50;;;;;;;13.13;8.60;;;19.90;99.90;;;;;;5113398;28;20357;-64
2023/08/19 04:50:16;;;;;;;10.35;7.88;;;20.40;99.90;;;;;;5113001;28;20094;-64
2023/08/19 04:52:42;;;;;;;11.10;8.95;;;19.90;99.90;;;;;;5113234;28;20032;-64
2023/08/19 04:55:08;;;;;;;14.05;9.25;;;20.00;99.90;;;;;;5111626;28;20483;-64
2023/08/19 04:57:34;;;;;;;13.98;9.98;;;20.10;99.90;;;;;;5113240;28;20035;-64
2023/08/19 04:59:59;;;;;;;9.80;7.82;;;20.40;99.90;;;;;;5113163;28;20092;-64
2023/08/19 05:02:25;;;;;;;11.00;7.75;;;20.10;99.90;;;;;;5113168;28;20543;-64
2023/08/19 05:04:51;;;;;;;10.80;8.95;;;20.00;99.90;;;;;;5113141;28;20165;-64
2023/08/19 05:07:16;;;;;;;11.52;8.98;;;20.30;99.90;;;;;;5112729;28;20487;-64
2023/08/19 05:09:42;;;;;;;11.63;8.45;;;20.20;99.90;;;;;;5112965;28;20096;-64
2023/08/19 05:12:08;;;;;;;10.65;8.52;;;20.00;99.90;;;;;;5112990;28;20035;-64
2023/08/19 05:14:34;;;;;;;11.30;8.88;;;20.20;99.90;;;;;;5113034;28;20391;-64
2023/08/19 05:17:00;;;;;;;10.73;8.52;;;;;;;;;;5116020;28;20040;-64
2023/08/19 05:19:26;;;;;;;12.88;8.18;;;;;;;;;;5116805;28;20042;-64
2023/08/19 05:21:52;;;;;;;10.65;8.27;;;;;;;;;;5116440;28;20031;-64
2023/08/19 05:24:18;;;;;;;11.30;8.07;;;;;;;;;;5115313;28;20035;-64
2023/08/19 05:26:44;;;;;;;10.95;8.68;;;;;;;;;;5116848;28;20523;-64
2023/08/19 05:29:13;;;;;;;13.15;8.80;;;;;;;;;;5116684;28;20046;-66
2023/08/19 05:31:40;;;;;;;10.35;7.82;;;;;;;;;;5116664;28;20039;-66
2023/08/19 05:34:08;;;;;;;10.95;7.82;;;;;;;;;;5116558;28;20144;-66
2023/08/19 05:36:34;;;;;;;9.98;7.35;;;;;;;;;;5115097;28;20096;-66
2023/08/19 05:39:00;;;;;;;10.55;7.88;;;;;;;;;;5114853;28;20076;-67
2023/08/19 05:41:26;;;;;;;9.68;7.53;;;;;;;;;;5116103;28;20039;-67
2023/08/19 05:43:52;;;;;;;11.77;8.23;;;;;;;;;;5116077;28;20046;-66
2023/08/19 05:46:18;;;;;;;10.75;8.45;;;;;;;;;;5116286;28;20043;-67
2023/08/19 05:48:44;;;;;;;8.05;6.47;;;;;;;;;;5114938;28;20043;-66
2023/08/19 05:51:10;;;;;;;10.88;7.38;;;;;;;;;;5115902;28;20517;-70
2023/08/19 05:53:36;;;;;;;11.25;7.45;;;;;;;;;;5114540;28;20040;-66
2023/08/19 05:56:02;;;;;;;10.32;7.45;;;;;;;;;;5114534;28;20035;-66
2023/08/19 05:58:28;;;;;;;8.48;6.95;;;;;;;;;;5114525;28;20042;-66
2023/08/19 06:00:58;;;;;;;12.60;8.35;;;;;;;;;;5116018;28;20072;-65
2023/08/19 06:03:24;;;;;;;10.17;7.23;;;;;;;;;;5116038;28;20047;-66
2023/08/19 06:05:50;;;;;;;10.15;6.65;;;;;;;;;;5115775;28;20391;-66
2023/08/19 06:08:16;;;;;;;10.77;8.52;;;;;;;;;;5114351;28;20466;-66
2023/08/19 06:10:44;;;;;;;9.30;7.07;;;;;;;;;;5115785;28;20123;-66
2023/08/19 06:13:13;;;;;;;8.25;6.80;;;;;;;;;;5115801;28;20040;-66
2023/08/19 06:15:39;;;;;;;12.50;7.35;;;;;;;;;;5115778;28;20035;-65
2023/08/19 06:18:06;;;;;;;8.70;6.65;;;;;;;;;;5115411;28;20122;-66
2023/08/19 06:20:32;;;;;;;10.15;6.97;;;;;;;;;;5115611;28;20036;-66
2023/08/19 06:22:58;;;;;;;10.60;6.38;;;;;;;;;;5115683;28;20050;-66
2023/08/19 06:25:24;;;;;;;9.18;6.80;;;;;;;;;;5115478;28;20452;-69
2023/08/19 06:27:50;;;;;;;10.10;6.28;;;;;;;;;;5114912;28;20204;-66
2023/08/19 06:30:16;;;;;;;9.80;7.35;;;;;;;;;;5115407;28;20044;-66
2023/08/19 06:32:42;;;;;;;8.82;6.40;;;;;;;;;;5115162;28;20449;-66
2023/08/19 06:35:09;;;;;;;9.50;6.72;;;;;;;;;;5114879;28;20044;-66
2023/08/19 06:37:40;;;;;;;8.73;6.78;;;;;;;;;;5115437;28;20096;-64
2023/08/19 06:40:08;;;;;;;8.00;6.28;;;;;;;;;;5115270;28;20036;-64
2023/08/19 06:42:36;;;;;;;8.40;6.25;;;;;;;;;;5114876;28;20043;-64
2023/08/19 06:45:04;;;;;;;9.00;6.85;;;21.10;99.90;;;;;;5114242;28;20172;-63
2023/08/19 06:47:33;;;;;;;8.80;6.35;;;21.20;99.90;;;;;;5113959;28;20160;-64
2023/08/19 06:49:59;;;;;;;7.07;5.88;;;21.20;99.90;;;;;;5115022;28;20403;-64
2023/08/19 06:52:25;;;;;;;10.10;6.57;;;21.20;99.90;;;;;;5115207;28;20040;-64
2023/08/19 06:54:51;;;;;;;7.85;5.78;;;21.10;99.90;;;;;;5115027;28;20032;-65
2023/08/19 06:57:29;;;;;;;7.85;5.95;;;21.10;99.90;;;;;;5114892;28;20494;-65
2023/08/19 07:00:01;;;;;;;8.00;5.65;;;21.10;99.90;;;;;;5114558;28;20172;-64
2023/08/19 07:02:28;;;;;;;10.35;6.72;;;21.10;99.90;;;;;;5113498;28;20051;-64
2023/08/19 07:04:59;;;;;;;8.05;5.95;;;21.20;99.90;;;;;;5114467;28;20372;-65
2023/08/19 07:07:25;;;;;;;6.93;5.60;;;21.20;99.90;;;;;;5112992;28;20048;-66
2023/08/19 07:09:52;;;;;;;8.65;5.75;;;21.30;99.90;;;;;;5114305;28;20047;-68
2023/08/19 07:12:18;;;;;;;7.93;5.80;;;21.30;99.90;;;;;;5114582;28;20376;-68
2023/08/19 07:14:44;;;;;;;8.73;4.88;;;21.30;99.90;;;;;;5114593;28;20399;-71
2023/08/19 07:17:11;;;;;;;8.02;5.60;;;21.30;99.90;;;;;;5114190;28;20044;-65
2023/08/19 07:19:40;;;;;;;7.05;5.70;;;21.40;99.90;;;;;;5112829;28;20043;-64
2023/08/19 07:22:07;;;;;;;7.00;5.18;;;21.40;99.90;;;;;;5114406;28;20044;-66
2023/08/19 07:24:33;;;;;;;8.80;5.40;;;21.40;99.90;;;;;;5114032;28;20046;-65
2023/08/19 07:27:02;;;;;;;8.90;5.00;;;21.50;99.90;;;;;;5114235;28;20111;-64
2023/08/19 07:29:28;;;;;;;7.88;5.18;;;21.50;99.90;;;;;;5114231;28;20043;-64
2023/08/19 07:31:55;;;;;;;8.35;5.15;;;21.50;99.90;;;;;;5114157;28;20546;-71
2023/08/19 07:34:20;;;;;;;7.40;5.25;;;21.60;99.90;;;;;;5114064;28;20042;-66
2023/08/19 07:36:46;;;;;;;9.07;4.85;;;21.60;99.90;;;;;;5113909;28;20484;-69
2023/08/19 07:39:11;;;;;;;6.55;4.90;;;21.60;99.90;;;;;;5111864;28;20370;-67
2023/08/19 07:41:39;;;;;;;6.25;4.88;;;21.80;99.90;;;;;;5114123;28;20079;-67
2023/08/19 07:44:05;;;;;;;8.02;5.85;;;21.70;99.90;;;;;;5114059;28;20118;-68
2023/08/19 07:46:32;;;;;;;6.82;5.63;;;;;;;;;;5113780;28;20075;-69
2023/08/19 07:48:58;;;;;;;9.05;5.00;;;;;;;;;;5113853;28;20081;-67
2023/08/19 07:51:24;;;;;;;7.18;4.75;;;;;;;;;;5113805;28;20040;-71
2023/08/19 07:53:50;;;;;;;7.50;4.80;;;;;;;;;;5112299;28;20477;-68
2023/08/19 07:56:19;;;;;;;7.97;4.93;;;;;;;;;;5113749;28;20039;-68
2023/08/19 07:58:45;;;;;;;6.75;4.80;;;;;;;;;;5113819;28;20058;-69
2023/08/19 08:01:11;;;;;;;6.32;4.95;;;;;;;;;;5112179;28;20036;-70
2023/08/19 08:03:40;;;;;;;8.38;6.90;;;;;;;;;;5112149;28;20040;-64
2023/08/19 08:06:06;;;;;;;7.07;5.25;;;;;;;;;;5111920;28;20456;-64
2023/08/19 08:08:32;;;;;;;6.72;4.10;;;;;;;;;;5113604;28;20479;-64
2023/08/19 08:10:58;;;;;;;6.00;4.57;;;;;;;;;;5113483;28;20092;-64
2023/08/19 08:13:24;;;;;;;6.88;4.88;;;;;;;;;;5113646;28;20391;-64
2023/08/19 08:15:50;;;;;;;5.47;4.35;;;;;;;;;;5113607;28;20070;-64
2023/08/19 08:18:16;;;;;;;6.93;4.25;;;;;;;;;;5113559;28;20038;-64
2023/08/19 08:20:42;;;;;;;5.70;4.00;;;22.60;99.90;;;;;;5113547;28;20159;-64
2023/08/19 08:23:08;;;;;;;7.45;4.80;;;22.60;99.90;;;;;;5113536;28;20511;-64
2023/08/19 08:25:33;;;;;;;5.88;3.97;;;22.60;99.90;;;;;;5113535;28;20039;-64
2023/08/19 08:27:59;;;;;;;5.05;3.90;;;22.70;99.90;;;;;;5113546;28;20050;-64
2023/08/19 08:30:24;;;;;;;5.43;3.90;;;22.80;99.90;;;;;;5113020;28;20395;-64
2023/08/19 08:32:51;;;;;;;6.65;3.97;;;22.80;99.90;;;;;;5113511;28;20032;-64
2023/08/19 08:35:17;;;;;;;6.72;3.90;;;22.80;99.90;;;;;;5113422;28;20032;-64
2023/08/19 08:37:43;;;;;;;7.03;3.55;;;22.90;99.90;;;;;;5113401;28;20036;-64
2023/08/19 08:40:09;;;;;;;6.18;3.92;;;23.00;99.90;;;;;;5111821;28;20048;-64
2023/08/19 08:42:35;;;;;;;6.72;4.20;;;23.00;99.90;;;;;;5113375;28;20118;-64
2023/08/19 08:45:01;;;;;;;6.30;3.75;;;;;;;;;;5113024;28;20465;-64
2023/08/19 08:47:28;;;;;;;9.60;4.45;;;;;;;;;;5113243;28;20441;-65
2023/08/19 08:49:55;;;;;;;6.20;4.30;;;;;;;;;;5111672;28;20468;-64
2023/08/19 08:52:21;;;;;;;5.13;3.88;;;;;;;;;;5117023;28;20039;-64
2023/08/19 08:54:53;;;;;;;4.88;3.40;;;;;;;;;;5116184;28;20463;-64
2023/08/19 08:57:19;;;;;;;5.10;3.80;;;;;;;;;;5115825;28;20376;-66
2023/08/19 08:59:45;;;;;;;5.32;3.75;;;;;;;;;;5117283;28;20042;-66
2023/08/19 09:02:12;;;;;;;6.18;4.57;;;24.00;99.90;;;;;;5117209;28;20403;-66
2023/08/19 09:04:44;;;;;;;6.10;4.20;;;24.20;99.90;;;;;;5117190;28;20043;-66
2023/08/19 09:07:23;;;;;;;7.97;4.15;;;24.20;99.90;;;;;;5115358;28;20067;-65
2023/08/19 09:09:52;;;;;;;4.60;3.28;;;24.40;99.90;;;;;;5117055;28;20043;-66
2023/08/19 09:12:20;;;;;;;4.70;3.72;;;24.40;99.90;;;;;;5116829;28;20035;-66
2023/08/19 09:14:49;;;;;;;5.43;3.65;;;24.40;99.90;;;;;;5116710;28;20039;-66
2023/08/19 09:17:15;;;;;;;5.50;4.07;;;24.40;99.90;;;;;;5116923;28;20063;-66
2023/08/19 09:19:41;;;;;;;7.88;3.80;;;24.40;99.90;;;;;;5116805;28;20439;-66
2023/08/19 09:22:16;;;;;;;5.13;3.75;;;24.60;99.90;;;;;;5116789;28;20034;-66
2023/08/19 09:24:43;;;;;;;5.53;3.38;;;24.40;99.90;;;;;;5116707;28;20432;-66
2023/08/19 09:27:08;;;;;;;5.38;3.28;;;24.50;99.90;;;;;;5115525;28;20035;-66
2023/08/19 09:29:34;;;;;;;7.32;3.55;;;24.60;99.90;;;;;;5116243;28;20512;-66
2023/08/19 09:32:00;;;;;;;5.32;3.22;;;24.60;99.90;;;;;;5116497;28;20038;-66
2023/08/19 09:34:26;;;;;;;6.05;3.72;;;24.60;99.90;;;;;;5116426;28;20034;-66
2023/08/19 09:36:58;;;;;;;6.50;3.88;;;24.70;99.90;;;;;;5116468;28;20118;-66
2023/08/19 09:39:32;;;;;;;6.38;4.13;;;24.70;99.90;;;;;;5116319;28;20043;-67
2023/08/19 09:41:58;;;;;;;6.03;3.40;;;24.70;99.90;;;;;;5116339;28;20394;-67
2023/08/19 09:44:26;;;;;;;5.68;3.90;;;24.80;99.90;;;;;;5116013;28;20067;-66
2023/08/19 09:46:54;;;;;;;5.22;2.90;;;25.00;99.90;;;;;;5116253;28;20513;-66
2023/08/19 09:49:21;;;;;;;5.95;3.58;;;25.00;99.90;;;;;;5116092;28;20368;-66
2023/08/19 09:51:54;;;;;;;5.25;3.75;;;25.10;99.90;;;;;;5116099;28;20550;-66
2023/08/19 09:54:19;;;;;;;4.13;3.22;;;25.10;99.90;;;;;;5116138;28;20475;-66
2023/08/19 09:56:56;;;;;;;5.93;3.22;;;25.10;99.90;;;;;;5116102;28;20034;-66
2023/08/19 09:59:26;;;;;;;3.63;2.72;;;25.10;99.90;;;;;;5116027;28;20063;-66
2023/08/19 10:01:52;;;;;;;5.20;3.20;;;25.20;99.90;;;;;;5115031;28;20035;-66
2023/08/19 10:04:19;;;;;;;5.00;3.42;;;25.20;99.90;;;;;;5115604;28;20360;-66
2023/08/19 10:06:48;;;;;;;3.72;2.75;;;25.20;99.90;;;;;;5115581;28;20080;-66
2023/08/19 10:09:19;;;;;;;4.95;3.42;;;25.30;99.90;;;;;;5115935;28;20028;-66
2023/08/19 10:11:49;;;;;;;4.35;2.90;;;25.40;99.90;;;;;;5115782;28;20039;-66
2023/08/19 10:14:15;;;;;;;6.45;3.10;;;25.50;99.90;;;;;;5115602;28;20127;-66
2023/08/19 10:16:45;;;;;;;4.75;3.25;;;25.60;99.90;;;;;;5115569;28;20467;-66
2023/08/19 10:19:15;;;;;;;4.55;3.05;;;25.60;99.90;;;;;;5115593;28;20114;-66
2023/08/19 10:21:42;;;;;;;3.38;2.55;;;25.50;99.90;;;;;;5115733;28;20048;-66
2023/08/19 10:24:08;;;;;;;4.70;2.75;;;25.40;99.90;;;;;;5115567;28;20043;-66
2023/08/19 10:26:34;;;;;;;4.93;2.97;;;25.40;99.90;;;;;;5115610;28;20079;-66
2023/08/19 10:29:05;;;;;;;5.97;3.25;;;25.30;99.90;;;;;;5115562;28;20075;-66
2023/08/19 10:31:31;;;;;;;4.13;2.28;;;25.30;99.90;;;;;;5115448;28;20085;-66
2023/08/19 10:33:57;;;;;;;3.70;2.70;;;25.20;99.90;;;;;;5115472;28;20035;-66
2023/08/19 10:36:30;;;;;;;3.90;3.22;;;25.20;99.90;;;;;;5113826;28;20123;-66
2023/08/19 10:38:57;;;;;;;3.17;2.42;;;25.10;99.90;;;;;;5115415;28;20079;-66
2023/08/19 10:41:29;;;;;;;5.95;3.10;;;25.00;99.90;;;;;;5115456;28;20544;-66
2023/08/19 10:44:02;;;;;;;2.55;2.28;;;24.90;99.90;;;;;;5114954;28;20036;-66
2023/08/19 10:46:41;;;;;;;4.85;2.92;;;24.70;99.90;;;;;;5114889;28;20047;-66
2023/08/19 10:49:15;;;;;;;5.85;3.33;;;24.80;99.90;;;;;;5115077;28;20097;-66
2023/08/19 10:52:00;;;;;;;3.25;2.83;;;24.80;99.90;;;;;;5114781;28;20547;-68
2023/08/19 10:54:35;;;;;;;4.20;3.15;;;24.80;99.90;;;;;;5114700;28;20032;-66
2023/08/19 10:57:14;;;;;;;3.63;3.17;;;24.70;99.90;;;;;;5114948;28;20039;-66
2023/08/19 10:59:45;;;;;;;3.60;2.70;;;24.60;99.90;;;;;;5114763;28;20146;-66
2023/08/19 11:02:13;;;;;;;3.50;2.75;;;24.60;99.90;;;;;;5114763;28;20031;-66
2023/08/19 11:04:40;;;;;;;4.00;3.13;;;24.50;99.90;;;;;;5114787;28;20031;-67
2023/08/19 11:07:07;;;;;;;4.22;3.17;;;24.50;99.90;;;;;;5114339;28;20391;-67
2023/08/19 11:09:33;;;;;;;4.85;2.85;;;24.50;99.90;;;;;;5114634;28;20035;-66
2023/08/19 11:12:00;;;;;;;3.78;3.00;;;24.50;99.90;;;;;;5113099;28;20042;-66
2023/08/19 11:14:25;;;;;;;5.15;3.13;;;24.50;99.90;;;;;;5114442;28;20044;-66
2023/08/19 11:16:55;;;;;;;4.45;2.88;;;24.50;99.90;;;;;;5114299;28;20054;-66
2023/08/19 11:19:22;;;;;;;3.38;2.65;;;24.50;99.90;;;;;;5114473;28;20052;-66
2023/08/19 11:21:48;;;;;;;3.20;2.60;;;24.60;99.90;;;;;;5112919;28;20052;-66
2023/08/19 11:24:14;;;;;;;3.70;2.83;;;24.50;99.90;;;;;;5114165;28;20057;-66
2023/08/19 11:26:44;;;;;;;11.85;9.77;;;24.70;99.90;;;;;;5114452;28;20051;-66
2023/08/19 11:29:10;;;;;;;;;;;24.60;99.90;;;;;;5113610;28;20040;-66
2023/08/19 11:31:37;;;;;;;4.55;3.33;;;24.70;99.90;;;;;;5114263;28;19923;-66
2023/08/19 11:34:10;;;;;;;4.68;2.50;;;24.70;99.90;;;;;;5114339;28;20441;-66
2023/08/19 11:36:38;;;;;;;4.13;2.88;;;24.60;99.90;;;;;;5112583;28;20043;-66
2023/08/19 11:39:04;;;;;;;3.47;2.92;;;25.00;99.90;;;;;;5114291;28;20035;-65
2023/08/19 11:41:31;;;;;;;4.53;3.08;;;25.10;99.90;;;;;;5114010;28;20575;-66
2023/08/19 11:43:58;;;;;;;5.57;3.28;;;25.30;99.90;;;;;;5114011;28;20035;-66
2023/08/19 11:46:30;;;;;;;3.33;2.47;;;25.50;99.90;;;;;;5113993;28;20040;-66
2023/08/19 11:48:57;;;;;;;3.05;2.75;;;25.60;99.90;;;;;;5113978;28;20040;-66
2023/08/19 11:51:25;;;;;;;4.40;3.65;;;25.90;99.90;;;;;;5113553;28;20039;-66
2023/08/19 11:53:53;;;;;;;4.57;2.83;;;25.60;99.90;;;;;;5113865;28;20128;-66
2023/08/19 11:56:20;;;;;;;4.90;3.95;;;25.70;99.90;;;;;;5112487;28;20039;-66
2023/08/19 11:58:50;;;;;;;4.50;3.25;;;25.70;99.90;;;;;;5113804;28;20475;-67
2023/08/19 12:01:20;;;;;;;5.95;3.80;;;25.70;99.90;;;;;;5113724;28;20036;-66
2023/08/19 12:03:46;;;;;;;;;;;25.70;99.90;;;;;;5113921;28;20039;-66
2023/08/19 12:06:13;;;;;;;3.95;3.17;;;25.80;99.90;;;;;;5113472;28;19919;-66
2023/08/19 12:08:47;;;;;;;4.00;3.60;;;26.00;99.90;;;;;;5113658;28;20036;-66
2023/08/19 12:11:14;;;;;;;5.53;3.50;;;26.00;99.90;;;;;;5113497;28;20039;-67
2023/08/19 12:13:40;;;;;;;4.30;3.05;;;26.20;99.90;;;;;;5111842;28;20051;-66
2023/08/19 12:16:07;;;;;;;4.43;3.85;;;26.40;99.90;;;;;;5113510;28;20031;-67
2023/08/19 12:18:35;;;;;;;5.82;4.68;;;26.60;99.90;;;;;;5113495;28;20035;-66
2023/08/19 12:21:05;;;;;;;6.00;5.45;;;26.50;99.90;;;;;;5111773;28;20048;-67
2023/08/19 12:23:31;;;;;;;5.05;4.43;;;26.70;99.90;;;;;;5113275;28;20088;-66
2023/08/19 12:25:58;;;;;;;6.65;4.95;;;26.80;99.90;;;;;;5113018;28;20031;-67
2023/08/19 12:28:25;;;;;;;2.70;2.40;;;26.80;99.90;;;;;;5113174;28;20039;-66
2023/08/19 12:30:53;;;;;;;3.53;2.58;;;26.80;99.90;;;;;;5113531;28;20047;-67
2023/08/19 12:33:20;;;;;;;3.50;2.70;;;26.80;99.90;;;;;;5113369;28;20043;-67
2023/08/19 12:35:46;;;;;;;2.92;2.65;;;26.70;99.90;;;;;;5113060;28;20074;-67
2023/08/19 12:38:17;;;;;;;3.20;2.47;;;26.70;99.90;;;;;;5111887;28;20050;-67
2023/08/19 12:40:44;;;;;;;2.67;2.30;;;26.60;99.90;;;;;;5113372;28;20395;-66
2023/08/19 12:43:13;;;;;;;2.75;2.55;;;26.60;99.90;;;;;;5113232;28;20044;-67
2023/08/19 12:45:40;;;;;;;3.17;2.53;;;26.50;99.90;;;;;;5113320;28;20054;-72
2023/08/19 12:48:06;;;;;;;3.83;2.90;;;26.50;99.90;;;;;;5111669;28;20108;-73
2023/08/19 12:50:33;;;;;;;2.13;1.92;;;26.40;99.90;;;;;;5113011;28;20092;-69
2023/08/19 12:52:59;;;;;;;2.35;2.15;;;26.30;99.90;;;;;;5113313;28;20161;-70
2023/08/19 12:55:26;;;;;;;2.78;2.58;;;26.20;99.90;;;;;;5094646;28;20096;-69
2023/08/19 12:57:56;;;;;;;3.92;3.63;;;26.10;99.90;;;;;;5113083;28;20490;-69
2023/08/19 13:00:27;;;;;;;3.40;3.10;;;26.00;99.90;;;;;;5113358;28;20390;-72
2023/08/19 13:02:53;;;;;;;3.20;2.90;;;25.70;99.90;;;;;;5111925;28;20632;-72